Historyczne dane pomiarowe

Dodano dane terminowe – wersja testowa.

Dane z okresu 1951-2019

Wersja bazy: 1.34 [2019-03-16, lista zmian], aktualizacja planowana na 2019-04-15

Dane meteo z obszaru Polski uzyskane na podstawie danych udostępnionych przez Instytut Meteorologii i Gospodarki Wodnej – Państwowy Instytut Badawczy.

 

Wybierz Datę:    

       

TemperaturaWilgotnośćWiatrCiśnienieOpadyŚniegCzas trwania zjawisk
 Stacja t tx tn tng RH VA  wxwx mslp ppp RRR   cm mm wxwxwxwxwxwxwx
1961-08-14 13.4 21.2 10.1--- 7.0 0.0---- 0.0------------
1961-08-13 13.3 18.9 12.1--- 8.0 3.3---- 4.2------------
1961-08-12 19.7 26.8 15.3--- 7.3 1.0---- 5.6------------
1961-08-11 25.9 32.8 17.3--- 2.7 4.0---- 0.5------------
1961-08-10 24.8 32.1 16.3--- 5.7 0.0---- 0.0------------
1961-08-09 22.9 31.0 14.3--- 5.0 0.0---- 1.1------------
1961-08-08 21.8 28.8 15.3--- 5.7 0.0---- 0.0------------
1961-08-07 23.2 30.1 19.8--- 0.0 3.3---- 0.0------------
1961-08-06 22.0 28.6 13.3--- 0.3 5.0---- 0.0------------
1961-08-05 17.1 24.8 12.8--- 7.0 2.0---- 0.0------------
1961-08-04 16.0 22.8 13.5--- 7.0 2.0---- 0.0------------
1961-08-03 17.7 25.8 11.3--- 5.3 1.7---- 18.0------------
1961-08-02 17.3 26.0 8.9--- 0.3 2.7---- 0.0------------
1961-08-01 15.9 22.4 9.4--- 7.0 3.3---- 0.0------------
1961-07-31 13.8 18.5 9.3--- 7.3 2.3---- 0.0------------
1961-07-30 11.5 13.7 10.8--- 8.0 4.0---- 11.2------------
1961-07-29 13.8 20.2 11.8--- 8.0 1.7---- 32.2------------
1961-07-28 20.9 29.0 16.5--- 7.0 4.7---- 0.7------------
1961-07-27 20.4 26.4 11.3--- 6.0 4.0---- 0.0------------
1961-07-26 14.3 21.8 6.8--- 5.3 2.0---- 0.0------------
1961-07-25 13.1 18.7 10.3--- 7.0 2.0---- 0.0------------
1961-07-24 14.5 19.1 13.1--- 7.7 2.0---- 0.0------------
1961-07-23 16.7 23.2 9.5--- 7.0 3.3---- 0.0------------
1961-07-22 14.6 20.8 12.3--- 7.0 2.0---- 0.7------------
1961-07-21 14.9 21.2 10.1--- 4.7 1.7---- 5.8------------
1961-07-20 13.4 18.7 8.3--- 7.7 3.7---- 15.3------------
1961-07-19 13.5 21.0 8.3--- 6.0 2.7---- 0.0------------
1961-07-18 14.8 22.2 11.1--- 7.0 1.0---- 0.0------------
1961-07-17 15.8 23.8 13.3--- 6.3 0.3---- 0.0------------
1961-07-16 17.8 26.2 13.3--- 7.7 2.7---- 13.0------------
1961-07-15 17.4 24.1 9.1--- 5.0 4.0---- 0.0------------
1961-07-14 14.2 18.7 12.5--- 5.3 2.3---- 8.0------------
1961-07-13 20.9 29.2 12.8--- 2.7 4.0---- 3.7------------
1961-07-12 20.5 27.2 8.9--- 4.7 7.7---- 0.0------------
1961-07-11 14.4 22.2 6.9--- 7.0 1.0---- 0.0------------
1961-07-10 14.1 21.8 10.9--- 7.0 4.7---- 0.0------------
1961-07-09 16.0 24.8 7.7--- 6.3 2.7---- 2.0------------
1961-07-08 14.8 22.3 11.3--- 4.3 1.0---- 0.0------------
1961-07-07 14.0 21.0 5.8--- 7.0 1.0---- 0.0------------
1961-07-06 12.2 20.2 9.3--- 4.7 3.0---- 1.8------------
1961-07-05 15.1 21.0 12.3--- 7.7 2.0---- 0.0------------
1961-07-04 22.3 30.6 13.9--- 4.7 2.0---- 0.0------------
1961-07-03 18.8 30.6 10.5--- 0.3 1.3---- 0.0------------
1961-07-02 19.0 28.0 8.9--- 0.3 0.7---- 0.0------------
1961-07-01 17.8 26.8 8.9--- 6.3 0.0---- 0.0------------
1961-06-30 16.1 23.8 10.7--- 5.0 0.0---- 0.0------------
1961-06-29 14.1 19.9 6.3--- 7.0 1.0---- 0.0------------
1961-06-28 13.6 24.6 9.9--- 7.3 2.7---- 10.0------------
1961-06-27 25.1 30.2 15.3--- 3.0 2.0---- 0.0------------
1961-06-26 22.2 30.0 13.8--- 2.0 2.7---- 0.0------------
1961-06-25 21.2 28.6 10.5--- 1.0 2.7---- 0.0------------
1961-06-24 17.9 26.2 11.3--- 6.3 2.7---- 0.0------------
1961-06-23 16.3 24.0 14.3--- 7.7 2.7---- 7.6------------
1961-06-22 19.0 26.2 8.8--- 7.0 2.0---- 2.2------------
1961-06-21 17.0 25.6 6.1--- 3.0 0.0---- 0.0------------
1961-06-20 15.6 21.8 12.3--- 4.7 2.0---- 0.0------------
1961-06-19 21.2 29.8 12.8--- 4.7 3.0---- 0.5------------
1961-06-18 17.7 25.6 8.8--- 4.7 2.7---- 0.0------------
1961-06-17 14.7 22.8 6.8--- 2.0 0.0---- 0.0------------
1961-06-16 14.0 20.8 10.5--- 5.7 1.7---- 0.0------------
433.8 ms

 

Źródłem pochodzenia danych jest Instytut Meteorologii i Gospodarki Wodnej – Państwowy Instytut Badawczy. Dane Instytutu Meteorologii i Gospodarki Wodnej – Państwowego Instytutu Badawczego zostały przetworzone.

Dane źródłowe można odnaleźć na stronie https://dane.imgw.pl